Gaston, Arkansas
Current Conditions -  °F | °C
As of 12:53 PM on Thursday 30 Oct 2014 (Local Time) from KMWT Reporting Station
Clear Clear  
Wind Chill: 71°   Ceiling: Unl
Heat Index: 71°   Visibility: 10mi
Dew Point: 41°   Wind: 7mph
Humidity: 34%   Direction: 260°W
Pressure: 30.09"   Gusts: NA
Location:  34.537°N, 93.6725°W
Report Text: KMWT 301753Z AUTO 26006KT 10SM CLR 22/05 A3009 RMK AO2 SLP188 T02170050 10222 20028 $
Loading
Personal Weather Stations






























Interactive Weather Map
Tropical Storm Tracking
New forecast layout! Learn more

10-Day Weather Forecast

Advertisements
Track Severe Weather on mobile